sensor_id;sensor_type;location;lat;lon;timestamp;P1;durP1;ratioP1;P2;durP2;ratioP2
71777;SDS011;59609;52.430;4.668;2023-07-22T00:00:10;7.40;;;3.47;;
71777;SDS011;59609;52.430;4.668;2023-07-22T00:02:37;5.95;;;3.45;;
71777;SDS011;59609;52.430;4.668;2023-07-22T00:05:03;7.28;;;3.30;;
71777;SDS011;59609;52.430;4.668;2023-07-22T00:07:29;6.38;;;3.40;;
71777;SDS011;59609;52.430;4.668;2023-07-22T00:09:54;4.70;;;3.10;;
71777;SDS011;59609;52.430;4.668;2023-07-22T00:12:19;6.20;;;3.20;;
71777;SDS011;59609;52.430;4.668;2023-07-22T00:14:44;6.32;;;3.03;;
71777;SDS011;59609;52.430;4.668;2023-07-22T00:17:10;6.73;;;3.00;;
71777;SDS011;59609;52.430;4.668;2023-07-22T00:19:35;5.70;;;3.73;;
71777;SDS011;59609;52.430;4.668;2023-07-22T00:22:00;5.90;;;3.20;;
71777;SDS011;59609;52.430;4.668;2023-07-22T00:24:26;6.68;;;3.10;;
71777;SDS011;59609;52.430;4.668;2023-07-22T00:26:51;5.90;;;2.95;;
71777;SDS011;59609;52.430;4.668;2023-07-22T00:29:16;6.40;;;3.17;;
71777;SDS011;59609;52.430;4.668;2023-07-22T00:31:42;4.83;;;2.97;;
71777;SDS011;59609;52.430;4.668;2023-07-22T00:34:07;4.88;;;3.10;;
71777;SDS011;59609;52.430;4.668;2023-07-22T00:36:33;6.15;;;3.00;;
71777;SDS011;59609;52.430;4.668;2023-07-22T00:38:58;7.47;;;3.25;;
71777;SDS011;59609;52.430;4.668;2023-07-22T00:41:23;9.50;;;3.37;;
71777;SDS011;59609;52.430;4.668;2023-07-22T00:43:49;5.43;;;2.85;;
71777;SDS011;59609;52.430;4.668;2023-07-22T00:46:14;7.87;;;3.60;;
71777;SDS011;59609;52.430;4.668;2023-07-22T00:48:39;5.03;;;2.87;;
71777;SDS011;59609;52.430;4.668;2023-07-22T00:51:05;5.43;;;2.97;;
71777;SDS011;59609;52.430;4.668;2023-07-22T00:53:31;5.43;;;3.30;;
71777;SDS011;59609;52.430;4.668;2023-07-22T00:55:56;6.07;;;3.00;;
71777;SDS011;59609;52.430;4.668;2023-07-22T00:58:22;5.90;;;3.10;;
71777;SDS011;59609;52.430;4.668;2023-07-22T01:00:47;7.13;;;3.72;;
71777;SDS011;59609;52.430;4.668;2023-07-22T01:03:13;6.05;;;3.40;;
71777;SDS011;59609;52.430;4.668;2023-07-22T01:05:38;6.22;;;3.28;;
71777;SDS011;59609;52.430;4.668;2023-07-22T01:08:04;6.55;;;2.83;;
71777;SDS011;59609;52.430;4.668;2023-07-22T01:10:29;6.80;;;3.50;;
71777;SDS011;59609;52.430;4.668;2023-07-22T01:12:55;5.68;;;3.25;;
71777;SDS011;59609;52.430;4.668;2023-07-22T01:15:21;6.43;;;3.20;;
71777;SDS011;59609;52.430;4.668;2023-07-22T01:17:46;7.32;;;3.15;;
71777;SDS011;59609;52.430;4.668;2023-07-22T01:20:11;7.90;;;3.25;;
71777;SDS011;59609;52.430;4.668;2023-07-22T01:22:37;7.68;;;3.67;;
71777;SDS011;59609;52.430;4.668;2023-07-22T01:25:03;7.22;;;3.40;;
71777;SDS011;59609;52.430;4.668;2023-07-22T01:27:28;6.57;;;3.85;;
71777;SDS011;59609;52.430;4.668;2023-07-22T01:29:58;6.70;;;3.60;;
71777;SDS011;59609;52.430;4.668;2023-07-22T01:32:24;7.05;;;3.97;;
71777;SDS011;59609;52.430;4.668;2023-07-22T01:34:49;9.30;;;3.97;;
71777;SDS011;59609;52.430;4.668;2023-07-22T01:37:15;10.38;;;4.10;;
71777;SDS011;59609;52.430;4.668;2023-07-22T01:39:40;7.80;;;4.00;;
71777;SDS011;59609;52.430;4.668;2023-07-22T01:42:06;6.95;;;3.63;;
71777;SDS011;59609;52.430;4.668;2023-07-22T01:44:32;7.73;;;4.27;;
71777;SDS011;59609;52.430;4.668;2023-07-22T01:46:57;8.75;;;4.20;;
71777;SDS011;59609;52.430;4.668;2023-07-22T01:49:23;8.60;;;4.20;;
71777;SDS011;59609;52.430;4.668;2023-07-22T01:51:49;6.60;;;4.00;;
71777;SDS011;59609;52.430;4.668;2023-07-22T01:54:14;10.75;;;4.28;;
71777;SDS011;59609;52.430;4.668;2023-07-22T01:56:40;7.57;;;3.90;;
71777;SDS011;59609;52.430;4.668;2023-07-22T01:59:05;8.63;;;4.10;;
71777;SDS011;59609;52.430;4.668;2023-07-22T02:01:31;5.90;;;3.80;;
71777;SDS011;59609;52.430;4.668;2023-07-22T02:03:56;9.57;;;4.53;;
71777;SDS011;59609;52.430;4.668;2023-07-22T02:06:21;7.80;;;4.23;;
71777;SDS011;59609;52.430;4.668;2023-07-22T02:08:47;11.50;;;4.00;;
71777;SDS011;59609;52.430;4.668;2023-07-22T02:11:12;8.33;;;3.50;;
71777;SDS011;59609;52.430;4.668;2023-07-22T02:13:37;7.35;;;4.18;;
71777;SDS011;59609;52.430;4.668;2023-07-22T02:16:03;7.03;;;3.70;;
71777;SDS011;59609;52.430;4.668;2023-07-22T02:18:28;8.10;;;3.80;;
71777;SDS011;59609;52.430;4.668;2023-07-22T02:20:54;9.88;;;4.18;;
71777;SDS011;59609;52.430;4.668;2023-07-22T02:23:20;7.22;;;4.10;;
71777;SDS011;59609;52.430;4.668;2023-07-22T02:25:49;6.63;;;4.13;;
71777;SDS011;59609;52.430;4.668;2023-07-22T02:28:14;8.15;;;3.85;;
71777;SDS011;59609;52.430;4.668;2023-07-22T02:30:40;7.63;;;3.60;;
71777;SDS011;59609;52.430;4.668;2023-07-22T02:33:06;6.45;;;2.95;;
71777;SDS011;59609;52.430;4.668;2023-07-22T02:35:31;7.13;;;3.28;;
71777;SDS011;59609;52.430;4.668;2023-07-22T02:37:58;5.95;;;3.13;;
71777;SDS011;59609;52.430;4.668;2023-07-22T02:40:23;7.18;;;3.45;;
71777;SDS011;59609;52.430;4.668;2023-07-22T02:42:48;7.07;;;3.63;;
71777;SDS011;59609;52.430;4.668;2023-07-22T02:45:13;4.60;;;3.07;;
71777;SDS011;59609;52.430;4.668;2023-07-22T02:47:39;6.17;;;3.00;;
71777;SDS011;59609;52.430;4.668;2023-07-22T02:50:05;6.30;;;2.72;;
71777;SDS011;59609;52.430;4.668;2023-07-22T02:52:31;5.45;;;2.97;;
71777;SDS011;59609;52.430;4.668;2023-07-22T02:57:37;6.32;;;3.00;;
71777;SDS011;59609;52.430;4.668;2023-07-22T03:00:03;5.45;;;2.83;;
71777;SDS011;59609;52.430;4.668;2023-07-22T03:02:38;7.22;;;3.20;;
71777;SDS011;59609;52.430;4.668;2023-07-22T03:05:04;8.10;;;3.65;;
71777;SDS011;59609;52.430;4.668;2023-07-22T03:07:32;4.85;;;2.90;;
71777;SDS011;59609;52.430;4.668;2023-07-22T03:09:58;4.65;;;3.00;;
71777;SDS011;59609;52.430;4.668;2023-07-22T03:12:24;5.38;;;2.72;;
71777;SDS011;59609;52.430;4.668;2023-07-22T03:14:49;6.10;;;2.70;;
71777;SDS011;59609;52.430;4.668;2023-07-22T03:17:14;6.53;;;2.40;;
71777;SDS011;59609;52.430;4.668;2023-07-22T03:19:41;4.25;;;2.60;;
71777;SDS011;59609;52.430;4.668;2023-07-22T03:22:06;3.97;;;2.27;;
71777;SDS011;59609;52.430;4.668;2023-07-22T03:24:31;4.27;;;2.07;;
71777;SDS011;59609;52.430;4.668;2023-07-22T03:26:57;3.53;;;2.03;;
71777;SDS011;59609;52.430;4.668;2023-07-22T03:29:22;5.07;;;2.13;;
71777;SDS011;59609;52.430;4.668;2023-07-22T03:31:49;5.22;;;2.55;;
71777;SDS011;59609;52.430;4.668;2023-07-22T03:34:14;4.90;;;2.40;;
71777;SDS011;59609;52.430;4.668;2023-07-22T03:36:40;3.70;;;2.65;;
71777;SDS011;59609;52.430;4.668;2023-07-22T03:39:05;3.93;;;2.40;;
71777;SDS011;59609;52.430;4.668;2023-07-22T03:41:31;9.63;;;3.85;;
71777;SDS011;59609;52.430;4.668;2023-07-22T03:43:56;4.47;;;2.93;;
71777;SDS011;59609;52.430;4.668;2023-07-22T03:46:21;4.57;;;2.30;;
71777;SDS011;59609;52.430;4.668;2023-07-22T03:48:46;4.80;;;2.73;;
71777;SDS011;59609;52.430;4.668;2023-07-22T03:51:11;4.63;;;2.40;;
71777;SDS011;59609;52.430;4.668;2023-07-22T03:53:37;5.57;;;2.60;;
71777;SDS011;59609;52.430;4.668;2023-07-22T03:56:02;11.30;;;4.20;;
71777;SDS011;59609;52.430;4.668;2023-07-22T03:58:27;7.38;;;2.85;;
71777;SDS011;59609;52.430;4.668;2023-07-22T04:00:52;3.87;;;2.40;;
71777;SDS011;59609;52.430;4.668;2023-07-22T04:03:18;6.23;;;3.10;;
71777;SDS011;59609;52.430;4.668;2023-07-22T04:05:43;3.43;;;2.20;;
71777;SDS011;59609;52.430;4.668;2023-07-22T04:08:08;3.10;;;1.90;;
71777;SDS011;59609;52.430;4.668;2023-07-22T04:10:33;3.80;;;1.83;;
71777;SDS011;59609;52.430;4.668;2023-07-22T04:12:58;6.47;;;1.95;;
71777;SDS011;59609;52.430;4.668;2023-07-22T04:15:24;3.83;;;1.80;;
71777;SDS011;59609;52.430;4.668;2023-07-22T04:17:50;4.68;;;1.60;;
71777;SDS011;59609;52.430;4.668;2023-07-22T04:20:15;5.37;;;2.07;;
71777;SDS011;59609;52.430;4.668;2023-07-22T04:22:40;4.18;;;1.80;;
71777;SDS011;59609;52.430;4.668;2023-07-22T04:25:06;3.17;;;1.73;;
71777;SDS011;59609;52.430;4.668;2023-07-22T04:27:31;5.93;;;1.95;;
71777;SDS011;59609;52.430;4.668;2023-07-22T04:29:56;2.63;;;1.73;;
71777;SDS011;59609;52.430;4.668;2023-07-22T04:32:22;5.33;;;1.90;;
71777;SDS011;59609;52.430;4.668;2023-07-22T04:34:47;5.20;;;1.30;;
71777;SDS011;59609;52.430;4.668;2023-07-22T04:37:12;3.40;;;1.30;;
71777;SDS011;59609;52.430;4.668;2023-07-22T04:39:38;2.45;;;1.50;;
71777;SDS011;59609;52.430;4.668;2023-07-22T04:42:03;4.30;;;1.52;;
71777;SDS011;59609;52.430;4.668;2023-07-22T04:44:28;2.80;;;1.80;;
71777;SDS011;59609;52.430;4.668;2023-07-22T04:46:54;2.20;;;1.53;;
71777;SDS011;59609;52.430;4.668;2023-07-22T04:49:19;2.42;;;1.75;;
71777;SDS011;59609;52.430;4.668;2023-07-22T04:51:45;3.55;;;1.83;;
71777;SDS011;59609;52.430;4.668;2023-07-22T04:54:10;3.33;;;1.48;;
71777;SDS011;59609;52.430;4.668;2023-07-22T04:56:36;3.33;;;1.77;;
71777;SDS011;59609;52.430;4.668;2023-07-22T04:59:01;4.43;;;1.60;;
71777;SDS011;59609;52.430;4.668;2023-07-22T05:01:26;1.70;;;1.47;;
71777;SDS011;59609;52.430;4.668;2023-07-22T05:03:51;2.53;;;1.70;;
71777;SDS011;59609;52.430;4.668;2023-07-22T05:06:17;4.10;;;1.60;;
71777;SDS011;59609;52.430;4.668;2023-07-22T05:08:43;2.80;;;1.60;;
71777;SDS011;59609;52.430;4.668;2023-07-22T05:11:08;4.33;;;1.93;;
71777;SDS011;59609;52.430;4.668;2023-07-22T05:13:33;4.30;;;2.00;;
71777;SDS011;59609;52.430;4.668;2023-07-22T05:15:58;3.63;;;2.33;;
71777;SDS011;59609;52.430;4.668;2023-07-22T05:18:23;4.57;;;2.20;;
71777;SDS011;59609;52.430;4.668;2023-07-22T05:20:49;3.83;;;2.53;;
71777;SDS011;59609;52.430;4.668;2023-07-22T05:23:14;6.07;;;2.57;;
71777;SDS011;59609;52.430;4.668;2023-07-22T05:25:40;4.78;;;2.83;;
71777;SDS011;59609;52.430;4.668;2023-07-22T05:28:05;4.40;;;2.73;;
71777;SDS011;59609;52.430;4.668;2023-07-22T05:30:30;5.93;;;2.38;;
71777;SDS011;59609;52.430;4.668;2023-07-22T05:32:56;3.40;;;2.33;;
71777;SDS011;59609;52.430;4.668;2023-07-22T05:35:21;3.20;;;2.10;;
71777;SDS011;59609;52.430;4.668;2023-07-22T05:37:46;4.63;;;2.30;;
71777;SDS011;59609;52.430;4.668;2023-07-22T05:40:11;3.83;;;2.63;;
71777;SDS011;59609;52.430;4.668;2023-07-22T05:42:37;7.27;;;2.80;;
71777;SDS011;59609;52.430;4.668;2023-07-22T05:45:02;4.10;;;2.47;;
71777;SDS011;59609;52.430;4.668;2023-07-22T05:47:27;5.20;;;2.92;;
71777;SDS011;59609;52.430;4.668;2023-07-22T05:49:53;7.90;;;2.63;;
71777;SDS011;59609;52.430;4.668;2023-07-22T05:52:19;7.22;;;2.92;;
71777;SDS011;59609;52.430;4.668;2023-07-22T05:54:44;6.57;;;3.07;;
71777;SDS011;59609;52.430;4.668;2023-07-22T05:57:09;5.37;;;2.80;;
71777;SDS011;59609;52.430;4.668;2023-07-22T05:59:35;6.60;;;2.60;;
71777;SDS011;59609;52.430;4.668;2023-07-22T06:02:01;6.75;;;2.90;;
71777;SDS011;59609;52.430;4.668;2023-07-22T06:04:27;5.03;;;2.92;;
71777;SDS011;59609;52.430;4.668;2023-07-22T06:06:53;4.55;;;2.70;;
71777;SDS011;59609;52.430;4.668;2023-07-22T06:09:18;4.88;;;3.53;;
71777;SDS011;59609;52.430;4.668;2023-07-22T06:11:44;4.97;;;2.63;;
71777;SDS011;59609;52.430;4.668;2023-07-22T06:14:10;4.32;;;2.83;;
71777;SDS011;59609;52.430;4.668;2023-07-22T06:16:35;7.30;;;2.50;;
71777;SDS011;59609;52.430;4.668;2023-07-22T06:19:00;4.80;;;2.87;;
71777;SDS011;59609;52.430;4.668;2023-07-22T06:21:26;5.37;;;2.87;;
71777;SDS011;59609;52.430;4.668;2023-07-22T06:23:51;4.63;;;2.83;;
71777;SDS011;59609;52.430;4.668;2023-07-22T06:26:16;7.63;;;3.60;;
71777;SDS011;59609;52.430;4.668;2023-07-22T06:28:41;7.93;;;3.27;;
71777;SDS011;59609;52.430;4.668;2023-07-22T06:31:07;8.20;;;3.55;;
71777;SDS011;59609;52.430;4.668;2023-07-22T06:33:32;9.15;;;3.95;;
71777;SDS011;59609;52.430;4.668;2023-07-22T06:35:58;8.13;;;4.30;;
71777;SDS011;59609;52.430;4.668;2023-07-22T06:38:23;11.85;;;4.93;;
71777;SDS011;59609;52.430;4.668;2023-07-22T06:40:48;15.90;;;5.43;;
71777;SDS011;59609;52.430;4.668;2023-07-22T06:43:14;12.83;;;5.70;;
71777;SDS011;59609;52.430;4.668;2023-07-22T06:45:39;14.90;;;6.33;;
71777;SDS011;59609;52.430;4.668;2023-07-22T06:48:04;15.32;;;6.07;;
71777;SDS011;59609;52.430;4.668;2023-07-22T06:50:29;14.70;;;6.80;;
71777;SDS011;59609;52.430;4.668;2023-07-22T06:52:55;15.87;;;6.23;;
71777;SDS011;59609;52.430;4.668;2023-07-22T06:55:20;15.13;;;6.07;;
71777;SDS011;59609;52.430;4.668;2023-07-22T06:57:47;16.80;;;7.13;;
71777;SDS011;59609;52.430;4.668;2023-07-22T07:00:13;14.80;;;6.88;;
71777;SDS011;59609;52.430;4.668;2023-07-22T07:02:38;18.00;;;8.57;;
71777;SDS011;59609;52.430;4.668;2023-07-22T07:05:03;21.33;;;8.10;;
71777;SDS011;59609;52.430;4.668;2023-07-22T07:07:29;17.60;;;7.50;;
71777;SDS011;59609;52.430;4.668;2023-07-22T07:09:54;15.77;;;8.33;;
71777;SDS011;59609;52.430;4.668;2023-07-22T07:12:19;19.43;;;7.83;;
71777;SDS011;59609;52.430;4.668;2023-07-22T07:14:45;20.47;;;8.63;;
71777;SDS011;59609;52.430;4.668;2023-07-22T07:17:10;21.65;;;8.77;;
71777;SDS011;59609;52.430;4.668;2023-07-22T07:19:36;20.43;;;8.80;;
71777;SDS011;59609;52.430;4.668;2023-07-22T07:22:01;21.93;;;8.93;;
71777;SDS011;59609;52.430;4.668;2023-07-22T07:24:26;23.70;;;8.80;;
71777;SDS011;59609;52.430;4.668;2023-07-22T07:26:52;22.17;;;9.32;;
71777;SDS011;59609;52.430;4.668;2023-07-22T07:29:17;22.70;;;8.35;;
71777;SDS011;59609;52.430;4.668;2023-07-22T07:31:42;22.83;;;9.47;;
71777;SDS011;59609;52.430;4.668;2023-07-22T07:34:08;22.77;;;8.43;;
71777;SDS011;59609;52.430;4.668;2023-07-22T07:36:33;19.57;;;8.43;;
71777;SDS011;59609;52.430;4.668;2023-07-22T07:38:58;19.27;;;9.07;;
71777;SDS011;59609;52.430;4.668;2023-07-22T07:41:24;27.00;;;9.90;;
71777;SDS011;59609;52.430;4.668;2023-07-22T07:43:49;23.48;;;10.23;;
71777;SDS011;59609;52.430;4.668;2023-07-22T07:46:18;17.57;;;8.83;;
71777;SDS011;59609;52.430;4.668;2023-07-22T07:48:46;23.00;;;9.52;;
71777;SDS011;59609;52.430;4.668;2023-07-22T07:51:12;21.48;;;8.73;;
71777;SDS011;59609;52.430;4.668;2023-07-22T07:53:37;23.55;;;9.52;;
71777;SDS011;59609;52.430;4.668;2023-07-22T07:56:02;24.35;;;9.60;;
71777;SDS011;59609;52.430;4.668;2023-07-22T07:58:28;21.70;;;9.65;;
71777;SDS011;59609;52.430;4.668;2023-07-22T08:00:53;24.50;;;9.73;;
71777;SDS011;59609;52.430;4.668;2023-07-22T08:03:24;19.48;;;9.05;;
71777;SDS011;59609;52.430;4.668;2023-07-22T08:05:49;23.17;;;9.30;;
71777;SDS011;59609;52.430;4.668;2023-07-22T08:08:14;17.90;;;8.83;;
71777;SDS011;59609;52.430;4.668;2023-07-22T08:10:39;18.42;;;8.15;;
71777;SDS011;59609;52.430;4.668;2023-07-22T08:13:05;21.25;;;7.78;;
71777;SDS011;59609;52.430;4.668;2023-07-22T08:15:31;17.90;;;7.50;;
71777;SDS011;59609;52.430;4.668;2023-07-22T08:17:59;19.15;;;7.38;;
71777;SDS011;59609;52.430;4.668;2023-07-22T08:20:24;9.63;;;3.80;;
71777;SDS011;59609;52.430;4.668;2023-07-22T08:22:49;10.10;;;4.33;;
71777;SDS011;59609;52.430;4.668;2023-07-22T08:25:15;7.13;;;3.20;;
71777;SDS011;59609;52.430;4.668;2023-07-22T08:27:40;3.37;;;2.23;;
71777;SDS011;59609;52.430;4.668;2023-07-22T08:30:05;5.20;;;1.80;;
71777;SDS011;59609;52.430;4.668;2023-07-22T08:32:31;2.63;;;1.75;;
71777;SDS011;59609;52.430;4.668;2023-07-22T08:34:56;3.97;;;1.70;;
71777;SDS011;59609;52.430;4.668;2023-07-22T08:37:21;4.27;;;1.67;;
71777;SDS011;59609;52.430;4.668;2023-07-22T08:39:46;2.53;;;1.63;;
71777;SDS011;59609;52.430;4.668;2023-07-22T08:42:12;3.42;;;1.60;;
71777;SDS011;59609;52.430;4.668;2023-07-22T08:44:38;4.43;;;1.77;;
71777;SDS011;59609;52.430;4.668;2023-07-22T08:47:07;4.00;;;1.80;;
71777;SDS011;59609;52.430;4.668;2023-07-22T08:49:34;3.33;;;1.85;;
71777;SDS011;59609;52.430;4.668;2023-07-22T08:51:59;2.67;;;1.73;;
71777;SDS011;59609;52.430;4.668;2023-07-22T08:54:25;4.10;;;1.58;;
71777;SDS011;59609;52.430;4.668;2023-07-22T08:56:50;3.00;;;1.50;;
71777;SDS011;59609;52.430;4.668;2023-07-22T08:59:17;17.42;;;1.95;;
71777;SDS011;59609;52.430;4.668;2023-07-22T09:01:42;1.90;;;1.58;;
71777;SDS011;59609;52.430;4.668;2023-07-22T09:04:08;2.53;;;1.45;;
71777;SDS011;59609;52.430;4.668;2023-07-22T09:06:34;2.23;;;1.43;;
71777;SDS011;59609;52.430;4.668;2023-07-22T09:09:00;5.35;;;1.75;;
71777;SDS011;59609;52.430;4.668;2023-07-22T09:11:26;3.58;;;1.60;;
71777;SDS011;59609;52.430;4.668;2023-07-22T09:13:51;3.20;;;1.50;;
71777;SDS011;59609;52.430;4.668;2023-07-22T09:16:35;4.32;;;1.45;;
71777;SDS011;59609;52.430;4.668;2023-07-22T09:19:02;5.10;;;2.00;;
71777;SDS011;59609;52.430;4.668;2023-07-22T09:21:28;5.28;;;1.73;;
71777;SDS011;59609;52.430;4.668;2023-07-22T09:23:53;2.17;;;1.70;;
71777;SDS011;59609;52.430;4.668;2023-07-22T09:26:18;2.70;;;1.70;;
71777;SDS011;59609;52.430;4.668;2023-07-22T09:28:51;7.20;;;1.80;;
71777;SDS011;59609;52.430;4.668;2023-07-22T09:31:16;2.70;;;1.58;;
71777;SDS011;59609;52.430;4.668;2023-07-22T09:33:41;3.10;;;1.80;;
71777;SDS011;59609;52.430;4.668;2023-07-22T09:36:09;2.60;;;1.35;;
71777;SDS011;59609;52.430;4.668;2023-07-22T09:38:34;2.15;;;1.20;;
71777;SDS011;59609;52.430;4.668;2023-07-22T09:41:00;3.30;;;1.48;;
71777;SDS011;59609;52.430;4.668;2023-07-22T09:43:25;1.53;;;1.10;;
71777;SDS011;59609;52.430;4.668;2023-07-22T09:45:50;1.43;;;1.20;;
71777;SDS011;59609;52.430;4.668;2023-07-22T09:48:15;4.75;;;1.55;;
71777;SDS011;59609;52.430;4.668;2023-07-22T09:50:41;3.53;;;1.50;;
71777;SDS011;59609;52.430;4.668;2023-07-22T09:53:06;4.57;;;1.30;;
71777;SDS011;59609;52.430;4.668;2023-07-22T09:55:31;3.53;;;1.38;;
71777;SDS011;59609;52.430;4.668;2023-07-22T09:58:02;3.92;;;1.42;;
71777;SDS011;59609;52.430;4.668;2023-07-22T10:00:28;3.88;;;1.30;;
71777;SDS011;59609;52.430;4.668;2023-07-22T10:02:57;4.43;;;1.27;;
71777;SDS011;59609;52.430;4.668;2023-07-22T10:05:23;2.30;;;1.02;;
71777;SDS011;59609;52.430;4.668;2023-07-22T10:07:51;2.75;;;1.23;;
71777;SDS011;59609;52.430;4.668;2023-07-22T10:10:20;1.48;;;1.00;;
71777;SDS011;59609;52.430;4.668;2023-07-22T10:12:46;6.35;;;1.33;;
71777;SDS011;59609;52.430;4.668;2023-07-22T10:15:12;1.65;;;1.00;;
71777;SDS011;59609;52.430;4.668;2023-07-22T10:17:38;3.97;;;1.65;;
71777;SDS011;59609;52.430;4.668;2023-07-22T10:20:04;2.10;;;1.00;;
71777;SDS011;59609;52.430;4.668;2023-07-22T10:22:36;2.25;;;1.33;;
71777;SDS011;59609;52.430;4.668;2023-07-22T10:25:03;1.85;;;1.20;;
71777;SDS011;59609;52.430;4.668;2023-07-22T10:27:29;2.17;;;1.20;;
71777;SDS011;59609;52.430;4.668;2023-07-22T10:29:55;2.63;;;1.00;;
71777;SDS011;59609;52.430;4.668;2023-07-22T10:32:21;2.92;;;1.00;;
71777;SDS011;59609;52.430;4.668;2023-07-22T10:34:46;2.22;;;1.17;;
71777;SDS011;59609;52.430;4.668;2023-07-22T10:37:11;2.57;;;1.10;;
71777;SDS011;59609;52.430;4.668;2023-07-22T10:39:36;4.50;;;1.38;;
71777;SDS011;59609;52.430;4.668;2023-07-22T10:42:02;3.03;;;0.97;;
71777;SDS011;59609;52.430;4.668;2023-07-22T10:44:30;1.15;;;0.82;;
71777;SDS011;59609;52.430;4.668;2023-07-22T10:46:58;3.15;;;1.58;;
71777;SDS011;59609;52.430;4.668;2023-07-22T10:49:24;3.28;;;1.00;;
71777;SDS011;59609;52.430;4.668;2023-07-22T10:51:52;3.40;;;1.00;;
71777;SDS011;59609;52.430;4.668;2023-07-22T10:54:34;1.47;;;1.17;;
71777;SDS011;59609;52.430;4.668;2023-07-22T10:57:04;3.22;;;1.05;;
71777;SDS011;59609;52.430;4.668;2023-07-22T10:59:49;3.08;;;0.93;;
71777;SDS011;59609;52.430;4.668;2023-07-22T11:04:49;2.42;;;1.40;;
71777;SDS011;59609;52.430;4.668;2023-07-22T11:07:14;3.07;;;1.03;;
71777;SDS011;59609;52.430;4.668;2023-07-22T11:09:40;2.30;;;1.00;;
71777;SDS011;59609;52.430;4.668;2023-07-22T11:12:16;3.45;;;0.98;;
71777;SDS011;59609;52.430;4.668;2023-07-22T11:14:52;2.83;;;1.05;;
71777;SDS011;59609;52.430;4.668;2023-07-22T11:17:18;1.20;;;1.10;;
71777;SDS011;59609;52.430;4.668;2023-07-22T11:19:43;3.42;;;1.08;;
71777;SDS011;59609;52.430;4.668;2023-07-22T11:22:09;4.22;;;1.30;;
71777;SDS011;59609;52.430;4.668;2023-07-22T11:24:35;5.20;;;1.30;;
71777;SDS011;59609;52.430;4.668;2023-07-22T11:27:02;3.90;;;1.05;;
71777;SDS011;59609;52.430;4.668;2023-07-22T11:29:28;4.05;;;1.23;;
71777;SDS011;59609;52.430;4.668;2023-07-22T11:31:53;2.20;;;1.37;;
71777;SDS011;59609;52.430;4.668;2023-07-22T11:34:19;3.27;;;1.20;;
71777;SDS011;59609;52.430;4.668;2023-07-22T11:36:45;2.78;;;1.40;;
71777;SDS011;59609;52.430;4.668;2023-07-22T11:39:14;5.90;;;1.45;;
71777;SDS011;59609;52.430;4.668;2023-07-22T11:41:40;7.10;;;1.77;;
71777;SDS011;59609;52.430;4.668;2023-07-22T11:44:09;4.10;;;1.50;;
71777;SDS011;59609;52.430;4.668;2023-07-22T11:46:44;2.25;;;1.33;;
71777;SDS011;59609;52.430;4.668;2023-07-22T11:49:11;3.08;;;1.40;;
71777;SDS011;59609;52.430;4.668;2023-07-22T11:51:37;4.05;;;1.65;;
71777;SDS011;59609;52.430;4.668;2023-07-22T11:54:06;3.75;;;1.38;;
71777;SDS011;59609;52.430;4.668;2023-07-22T11:56:32;2.28;;;1.40;;
71777;SDS011;59609;52.430;4.668;2023-07-22T11:58:58;4.30;;;1.20;;
71777;SDS011;59609;52.430;4.668;2023-07-22T12:01:23;2.80;;;1.40;;
71777;SDS011;59609;52.430;4.668;2023-07-22T12:03:48;3.42;;;1.58;;
71777;SDS011;59609;52.430;4.668;2023-07-22T12:06:14;4.20;;;1.40;;
71777;SDS011;59609;52.430;4.668;2023-07-22T12:08:46;4.40;;;1.55;;
71777;SDS011;59609;52.430;4.668;2023-07-22T12:11:21;2.70;;;1.30;;
71777;SDS011;59609;52.430;4.668;2023-07-22T12:13:47;2.80;;;1.50;;
71777;SDS011;59609;52.430;4.668;2023-07-22T12:16:20;2.65;;;1.65;;
71777;SDS011;59609;52.430;4.668;2023-07-22T12:18:46;4.47;;;1.48;;
71777;SDS011;59609;52.430;4.668;2023-07-22T12:21:11;3.03;;;1.25;;
71777;SDS011;59609;52.430;4.668;2023-07-22T12:23:37;5.03;;;1.52;;
71777;SDS011;59609;52.430;4.668;2023-07-22T12:26:03;4.25;;;1.95;;
71777;SDS011;59609;52.430;4.668;2023-07-22T12:28:28;7.68;;;2.00;;
71777;SDS011;59609;52.430;4.668;2023-07-22T12:30:53;4.13;;;2.00;;
71777;SDS011;59609;52.430;4.668;2023-07-22T12:33:19;3.92;;;1.90;;
71777;SDS011;59609;52.430;4.668;2023-07-22T12:35:44;4.50;;;2.00;;
71777;SDS011;59609;52.430;4.668;2023-07-22T12:38:10;3.57;;;2.03;;
71777;SDS011;59609;52.430;4.668;2023-07-22T12:40:35;4.50;;;2.00;;
71777;SDS011;59609;52.430;4.668;2023-07-22T12:43:00;4.77;;;2.30;;
71777;SDS011;59609;52.430;4.668;2023-07-22T12:45:25;4.30;;;2.60;;
71777;SDS011;59609;52.430;4.668;2023-07-22T12:47:50;5.73;;;2.40;;
71777;SDS011;59609;52.430;4.668;2023-07-22T12:50:16;5.67;;;2.20;;
71777;SDS011;59609;52.430;4.668;2023-07-22T12:52:41;4.80;;;2.70;;
71777;SDS011;59609;52.430;4.668;2023-07-22T12:55:06;8.27;;;2.57;;
71777;SDS011;59609;52.430;4.668;2023-07-22T12:57:32;5.70;;;2.67;;
71777;SDS011;59609;52.430;4.668;2023-07-22T12:59:57;6.63;;;2.63;;
71777;SDS011;59609;52.430;4.668;2023-07-22T13:02:22;7.17;;;2.83;;
71777;SDS011;59609;52.430;4.668;2023-07-22T13:04:47;7.95;;;2.53;;
71777;SDS011;59609;52.430;4.668;2023-07-22T13:07:13;6.43;;;2.50;;
71777;SDS011;59609;52.430;4.668;2023-07-22T13:09:38;3.95;;;2.33;;
71777;SDS011;59609;52.430;4.668;2023-07-22T13:12:04;6.30;;;3.35;;
71777;SDS011;59609;52.430;4.668;2023-07-22T13:14:29;4.53;;;2.60;;
71777;SDS011;59609;52.430;4.668;2023-07-22T13:16:54;6.30;;;2.80;;
71777;SDS011;59609;52.430;4.668;2023-07-22T13:19:19;5.97;;;2.77;;
71777;SDS011;59609;52.430;4.668;2023-07-22T13:21:44;6.27;;;2.87;;
71777;SDS011;59609;52.430;4.668;2023-07-22T13:24:10;6.00;;;2.57;;
71777;SDS011;59609;52.430;4.668;2023-07-22T13:26:35;5.30;;;2.03;;
71777;SDS011;59609;52.430;4.668;2023-07-22T13:29:01;7.60;;;2.72;;
71777;SDS011;59609;52.430;4.668;2023-07-22T13:31:26;4.32;;;2.22;;
71777;SDS011;59609;52.430;4.668;2023-07-22T13:34:10;7.68;;;2.42;;
71777;SDS011;59609;52.430;4.668;2023-07-22T13:36:35;9.20;;;2.40;;
71777;SDS011;59609;52.430;4.668;2023-07-22T13:39:01;5.28;;;2.50;;
71777;SDS011;59609;52.430;4.668;2023-07-22T13:41:26;5.95;;;2.50;;
71777;SDS011;59609;52.430;4.668;2023-07-22T13:43:51;5.33;;;2.47;;
71777;SDS011;59609;52.430;4.668;2023-07-22T13:46:16;5.73;;;2.40;;
71777;SDS011;59609;52.430;4.668;2023-07-22T13:48:42;6.10;;;2.47;;
71777;SDS011;59609;52.430;4.668;2023-07-22T13:51:07;3.83;;;2.03;;
71777;SDS011;59609;52.430;4.668;2023-07-22T13:53:32;6.47;;;2.28;;
71777;SDS011;59609;52.430;4.668;2023-07-22T13:55:58;5.03;;;2.15;;
71777;SDS011;59609;52.430;4.668;2023-07-22T13:58:23;3.53;;;1.93;;
71777;SDS011;59609;52.430;4.668;2023-07-22T14:00:48;6.27;;;2.13;;
71777;SDS011;59609;52.430;4.668;2023-07-22T14:03:14;4.00;;;2.30;;
71777;SDS011;59609;52.430;4.668;2023-07-22T14:05:39;5.32;;;2.20;;
71777;SDS011;59609;52.430;4.668;2023-07-22T14:08:04;6.10;;;2.50;;
71777;SDS011;59609;52.430;4.668;2023-07-22T14:10:29;3.63;;;2.00;;
71777;SDS011;59609;52.430;4.668;2023-07-22T14:12:55;4.53;;;2.20;;
71777;SDS011;59609;52.430;4.668;2023-07-22T14:15:20;7.60;;;2.00;;
71777;SDS011;59609;52.430;4.668;2023-07-22T14:17:45;9.67;;;2.20;;
71777;SDS011;59609;52.430;4.668;2023-07-22T14:20:10;6.27;;;2.43;;
71777;SDS011;59609;52.430;4.668;2023-07-22T14:22:39;4.80;;;1.65;;
71777;SDS011;59609;52.430;4.668;2023-07-22T14:25:05;4.35;;;1.88;;
71777;SDS011;59609;52.430;4.668;2023-07-22T14:27:30;5.60;;;1.90;;
71777;SDS011;59609;52.430;4.668;2023-07-22T14:29:55;4.80;;;1.90;;
71777;SDS011;59609;52.430;4.668;2023-07-22T14:32:21;8.27;;;2.40;;
71777;SDS011;59609;52.430;4.668;2023-07-22T14:34:46;5.05;;;2.00;;
71777;SDS011;59609;52.430;4.668;2023-07-22T14:37:12;4.50;;;1.53;;
71777;SDS011;59609;52.430;4.668;2023-07-22T14:39:37;4.60;;;1.60;;
71777;SDS011;59609;52.430;4.668;2023-07-22T14:42:02;6.10;;;1.83;;